Time;durP1;ratioP1;P1;durP2;ratioP2;P2;SDS_P1;SDS_P2;PMS_P1;PMS_P2;Temp;Humidity;BMP_temperature;BMP_pressure;BME280_temperature;BME280_humidity;BME280_pressure;Samples;Min_cycle;Max_cycle;Signal;HPM_P1;HPM_P2
2024/01/25 00:00:31;;;;;;;6.90;1.40;;;;;;;8.62;100.00;99792.66;4184074;28;20289;-50
2024/01/25 00:02:33;;;;;;;3.50;1.90;;;;;;;8.59;100.00;99793.06;4167372;28;20224;-49
2024/01/25 00:04:35;;;;;;;4.35;2.50;;;;;;;8.62;100.00;99787.19;4173153;28;20208;-50
2024/01/25 00:06:37;;;;;;;14.65;2.92;;;;;;;8.63;100.00;99791.59;4171676;28;20302;-50
2024/01/25 00:08:39;;;;;;;3.15;2.95;;;;;;;8.67;100.00;99790.13;4168816;28;20239;-50
2024/01/25 00:10:41;;;;;;;6.72;1.98;;;;;;;8.70;100.00;99789.72;4162342;28;20213;-51
2024/01/25 00:12:43;;;;;;;9.27;4.50;;;;;;;8.70;100.00;99789.72;4168826;28;20228;-51
2024/01/25 00:14:44;;;;;;;5.25;2.88;;;;;;;8.72;100.00;99787.63;4165914;28;20291;-50
2024/01/25 00:16:46;;;;;;;9.32;3.15;;;;;;;8.69;100.00;99788.88;4168336;28;20208;-51
2024/01/25 00:18:48;;;;;;;16.42;2.42;;;;;;;8.72;100.00;99788.47;4170864;28;20208;-51
2024/01/25 00:20:50;;;;;;;11.23;3.97;;;;;;;8.65;100.00;99792.22;4172886;28;20278;-51
2024/01/25 00:22:51;;;;;;;3.42;2.80;;;;;;;8.69;100.00;99793.50;4166965;28;20224;-49
2024/01/25 00:24:53;;;;;;;5.38;2.05;;;;;;;8.71;100.00;99803.19;4165692;28;20230;-51
2024/01/25 00:26:55;;;;;;;8.27;2.60;;;;;;;8.67;100.00;99795.59;4166709;28;20208;-50
2024/01/25 00:28:57;;;;;;;13.73;3.13;;;;;;;8.66;100.00;99793.91;4173298;28;20253;-50
2024/01/25 00:30:58;;;;;;;7.43;2.03;;;;;;;8.60;100.00;99794.72;4183470;28;20211;-50
2024/01/25 00:33:01;;;;;;;3.78;1.77;;;;;;;8.63;100.00;99795.16;4180576;28;20365;-50
2024/01/25 00:35:04;;;;;;;2.33;1.67;;;;;;;8.59;100.00;99784.88;4172819;28;20223;-51
2024/01/25 00:37:06;;;;;;;4.18;1.85;;;;;;;8.57;100.00;99786.97;4183056;28;20240;-51
2024/01/25 00:39:08;;;;;;;4.35;1.73;;;;;;;8.57;100.00;99800.59;4169689;28;20741;-50
2024/01/25 00:41:11;;;;;;;4.22;2.55;;;;;;;8.64;100.00;99798.75;4166173;28;20573;-50
2024/01/25 00:43:14;;;;;;;5.80;1.63;;;;;;;8.57;100.00;99798.72;4174603;28;20282;-49
2024/01/25 00:45:16;;;;;;;8.43;1.98;;;;;;;8.58;100.00;99797.69;4168105;28;20211;-49
2024/01/25 00:47:17;;;;;;;13.27;2.05;;;;;;;8.59;100.00;99803.97;4169342;28;20223;-50
2024/01/25 00:49:20;;;;;;;10.15;3.10;;;;;;;8.54;100.00;99798.31;4151719;28;20802;-51
2024/01/25 00:51:25;;;;;;;12.55;2.28;;;;;;;8.59;100.00;99793.06;4175186;28;20262;-48
2024/01/25 00:53:27;;;;;;;7.15;2.30;;;;;;;8.66;100.00;99796.63;4157327;28;20619;-50
2024/01/25 00:55:29;;;;;;;12.68;2.65;;;;;;;8.69;100.00;99794.34;4175229;28;20275;-50
2024/01/25 00:57:32;;;;;;;8.85;3.17;;;;;;;8.60;100.00;99795.59;4164964;28;20220;-50
2024/01/25 00:59:34;;;;;;;1.98;1.20;;;;;;;8.64;100.00;99801.47;4165123;28;20220;-51
2024/01/25 01:01:36;;;;;;;10.18;2.63;;;;;;;8.58;100.00;99794.97;4150277;28;20217;-50
2024/01/25 01:03:38;;;;;;;13.27;1.73;;;;;;;8.64;100.00;99788.69;4165810;28;20236;-50
2024/01/25 01:05:40;;;;;;;2.53;2.28;;;;;;;8.58;100.00;99783.19;4166816;28;20788;-51
2024/01/25 01:07:44;;;;;;;2.90;2.03;;;;;;;8.60;100.00;99783.81;4171661;28;20287;-50
2024/01/25 01:09:46;;;;;;;15.95;3.35;;;;;;;8.46;100.00;99782.97;4172503;28;20219;-50
2024/01/25 01:11:50;;;;;;;4.25;1.60;;;;;;;8.53;100.00;99782.97;4158287;28;20263;-51
2024/01/25 01:13:52;;;;;;;5.25;1.73;;;;;;;8.46;100.00;99782.09;4171078;28;20208;-51
2024/01/25 01:15:53;;;;;;;2.45;2.22;;;;;;;8.46;100.00;99776.66;4165541;28;20236;-50
2024/01/25 01:17:55;;;;;;;5.55;1.95;;;;;;;8.42;100.00;99781.69;4164074;28;20209;-50
2024/01/25 01:19:57;;;;;;;3.83;1.92;;;;;;;8.43;100.00;99783.34;4167423;28;20244;-50
2024/01/25 01:21:59;;;;;;;14.18;3.35;;;;;;;8.42;100.00;99780.84;4170521;28;20208;-50
2024/01/25 01:24:02;;;;;;;1.67;1.55;;;;;;;8.41;100.00;99773.72;4173184;28;20228;-49
2024/01/25 01:26:04;;;;;;;2.00;1.70;;;;;;;8.57;100.00;99768.72;4156539;28;20201;-50
2024/01/25 01:28:06;;;;;;;9.52;2.75;;;;;;;8.45;100.00;99781.28;4183605;28;20222;-51
2024/01/25 01:30:08;;;;;;;3.95;1.73;;;;;;;8.46;100.00;99779.38;4174161;28;20215;-50
2024/01/25 01:32:10;;;;;;;6.13;1.65;;;;;;;8.47;100.00;99783.78;4169708;28;20271;-49
2024/01/25 01:34:17;;;;;;;5.07;1.05;;;;;;;8.43;100.00;99777.06;4168273;28;20258;-50
2024/01/25 01:36:20;;;;;;;9.95;2.35;;;;;;;8.42;100.00;99780.84;4175793;28;20890;-50
2024/01/25 01:38:22;;;;;;;4.70;3.42;;;;;;;8.48;100.00;99777.31;4175668;28;20200;-50
2024/01/25 01:40:23;;;;;;;15.25;1.85;;;;;;;8.46;100.00;99779.38;4176590;28;20282;-52
2024/01/25 01:42:27;;;;;;;9.68;1.60;;;;;;;8.43;100.00;99788.81;4171365;28;20235;-50
2024/01/25 01:44:29;;;;;;;2.47;2.08;;;;;;;8.40;100.00;99793.81;4153087;28;20308;-50
2024/01/25 01:46:39;;;;;;;3.13;1.40;;;;;;;8.36;100.00;99792.56;4168150;28;20559;-50
2024/01/25 01:48:41;;;;;;;2.72;1.67;;;;;;;8.37;100.00;99788.81;4160499;28;20204;-50
2024/01/25 01:50:44;;;;;;;9.20;2.42;;;;;;;8.39;100.00;99803.06;4158000;28;20297;-50
2024/01/25 01:52:46;;;;;;;2.60;2.05;;;;;;;8.41;100.00;99795.53;4167760;28;20239;-50
2024/01/25 01:54:48;;;;;;;2.45;2.25;;;;;;;8.34;100.00;99805.59;4168861;28;20234;-50
2024/01/25 01:56:51;;;;;;;6.80;1.95;;;;;;;8.31;100.00;99801.38;4153542;28;20311;-50
2024/01/25 01:58:54;;;;;;;2.40;2.13;;;;;;;8.39;100.00;99801.19;4173921;28;20333;-51
2024/01/25 02:00:57;;;;;;;10.70;3.75;;;;;;;8.21;100.00;99806.34;4164625;28;20208;-50
2024/01/25 02:02:58;;;;;;;2.70;2.38;;;;;;;8.25;100.00;99806.78;4182527;28;20228;-50
2024/01/25 02:05:00;;;;;;;6.32;2.17;;;;;;;8.35;100.00;99799.09;4151958;28;20229;-51
2024/01/25 02:07:02;;;;;;;5.43;2.72;;;;;;;8.22;100.00;99796.31;4176255;28;20253;-50
2024/01/25 02:09:05;;;;;;;4.32;1.30;;;;;;;8.11;100.00;99818.66;4177658;28;20743;-51
2024/01/25 02:11:08;;;;;;;11.07;2.38;;;;;;;8.14;100.00;99810.91;4171537;28;20219;-50
2024/01/25 02:13:10;;;;;;;5.22;2.45;;;;;;;8.13;100.00;99822.00;4172394;28;20281;-50
2024/01/25 02:15:12;;;;;;;2.88;1.40;;;;;;;8.11;100.00;99821.38;4166762;28;20204;-50
2024/01/25 02:17:13;;;;;;;2.63;1.58;;;;;;;8.01;100.00;99826.38;4173846;28;20244;-50
2024/01/25 02:19:15;;;;;;;5.00;2.67;;;;;;;8.12;100.00;99829.38;4184445;28;20261;-50
2024/01/25 02:21:17;;;;;;;4.53;2.28;;;;;;;8.17;100.00;99817.84;4177152;28;20785;-51
2024/01/25 02:23:19;;;;;;;4.88;2.55;;;;;;;8.07;100.00;99820.94;4166992;28;20771;-51
2024/01/25 02:25:21;;;;;;;7.93;3.15;;;;;;;8.15;100.00;99814.50;4167518;28;20262;-50
2024/01/25 02:27:23;;;;;;;2.53;1.80;;;;;;;8.05;100.00;99825.75;4168480;28;20673;-50
2024/01/25 02:29:24;;;;;;;3.60;1.90;;;;;;;7.92;100.00;99830.28;4172815;28;20779;-51
2024/01/25 02:31:26;;;;;;;5.22;1.33;;;;;;;8.01;100.00;99834.56;4153677;28;20567;-52
2024/01/25 02:33:28;;;;;;;5.40;3.30;;;;;;;7.94;100.00;99841.81;4169354;28;20262;-50
2024/01/25 02:35:30;;;;;;;7.32;1.60;;;;;;;7.89;100.00;99839.69;4170344;28;20254;-50
2024/01/25 02:37:32;;;;;;;1.10;1.00;;;;;;;7.84;100.00;99834.03;4171910;28;20666;-50
2024/01/25 02:39:33;;;;;;;1.63;1.50;;;;;;;8.00;100.00;99835.56;4171394;28;20216;-50
2024/01/25 02:41:35;;;;;;;2.88;1.83;;;;;;;7.94;100.00;99837.22;4158354;28;20250;-50
2024/01/25 02:43:37;;;;;;;4.93;2.45;;;;;;;7.89;100.00;99838.88;4173545;28;20254;-49
2024/01/25 02:45:39;;;;;;;3.28;1.92;;;;;;;7.95;100.00;99843.53;4185103;28;20203;-50
2024/01/25 02:47:40;;;;;;;2.70;2.25;;;;;;;7.88;100.00;99837.19;4171827;28;20313;-50
2024/01/25 02:49:42;;;;;;;10.60;2.25;;;;;;;7.84;100.00;99836.75;4187074;28;20286;-51
2024/01/25 02:51:44;;;;;;;2.25;1.75;;;;;;;7.98;100.00;99815.84;4173532;28;20207;-51
2024/01/25 02:53:46;;;;;;;3.25;2.92;;;;;;;7.91;100.00;99826.75;4167213;28;20216;-51
2024/01/25 02:55:48;;;;;;;4.15;1.55;;;;;;;7.94;100.00;99817.28;4167111;28;20236;-50
2024/01/25 02:57:49;;;;;;;4.72;2.13;;;;;;;7.90;100.00;99825.03;4172623;28;20207;-51
2024/01/25 02:59:51;;;;;;;6.30;1.50;;;;;;;7.90;100.00;99824.22;4161331;28;20275;-51
2024/01/25 03:01:54;;;;;;;4.05;2.25;;;;;;;7.91;100.00;99824.00;4171222;28;20215;-50
2024/01/25 03:03:56;;;;;;;10.80;1.83;;;;;;;7.91;100.00;99825.88;4168431;28;20727;-50
2024/01/25 03:05:58;;;;;;;4.32;2.50;;;;;;;7.89;100.00;99817.91;4172992;28;20216;-50
2024/01/25 03:08:01;;;;;;;4.40;1.23;;;;;;;7.80;100.00;99823.72;4166477;28;20208;-50
2024/01/25 03:10:03;;;;;;;6.57;2.72;;;;;;;7.84;100.00;99835.91;4173423;28;20212;-50
2024/01/25 03:12:05;;;;;;;6.03;1.48;;;;;;;7.90;100.00;99840.56;4172021;28;20672;-51
2024/01/25 03:14:07;;;;;;;13.90;1.73;;;;;;;7.84;100.00;99835.91;4169632;28;20234;-48
2024/01/25 03:16:09;;;;;;;1.92;1.25;;;;;;;7.72;100.00;99837.50;4167476;28;20662;-50
2024/01/25 03:18:10;;;;;;;4.32;1.88;;;;;;;7.79;100.00;99824.75;4150269;28;20201;-49
2024/01/25 03:20:12;;;;;;;2.22;2.10;;;;;;;7.81;100.00;99826.25;4158719;28;20278;-49
2024/01/25 03:22:14;;;;;;;4.82;2.40;;;;;;;7.70;100.00;99828.69;4185678;28;20232;-50
2024/01/25 03:24:16;;;;;;;4.43;2.05;;;;;;;7.68;100.00;99841.69;4166633;28;20258;-50
2024/01/25 03:26:18;;;;;;;13.88;3.60;;;;;;;7.62;100.00;99839.75;4169663;28;20216;-50
2024/01/25 03:28:20;;;;;;;9.95;2.63;;;;;;;7.56;100.00;99835.09;4172442;28;20549;-50
2024/01/25 03:30:22;;;;;;;6.65;3.53;;;;;;;7.60;100.00;99833.63;4165715;28;20219;-50
2024/01/25 03:32:23;;;;;;;12.73;2.78;;;;;;;7.61;100.00;99829.91;4169724;28;20238;-50
2024/01/25 03:34:25;;;;;;;8.60;1.65;;;;;;;7.63;100.00;99828.63;4170601;28;20349;-49
2024/01/25 03:36:27;;;;;;;12.27;3.28;;;;;;;7.57;100.00;99823.16;4163424;28;20243;-51
2024/01/25 03:38:29;;;;;;;1.75;1.65;;;;;;;7.55;100.00;99825.25;4171768;28;20219;-51
2024/01/25 03:40:31;;;;;;;7.05;1.73;;;;;;;7.56;100.00;99826.94;4172855;28;20212;-49
2024/01/25 03:42:33;;;;;;;3.30;1.45;;;;;;;7.51;100.00;99818.50;4168270;28;20239;-50
2024/01/25 03:44:35;;;;;;;9.55;2.92;;;;;;;7.55;100.00;99814.34;4172112;28;20224;-50
2024/01/25 03:46:37;;;;;;;17.23;3.58;;;;;;;7.47;100.00;99822.66;4175162;28;20231;-50
2024/01/25 03:48:38;;;;;;;9.93;3.33;;;;;;;7.46;100.00;99826.41;4185251;28;20212;-51
2024/01/25 03:50:40;;;;;;;2.63;1.83;;;;;;;7.39;100.00;99825.53;4165533;28;20205;-50
2024/01/25 03:52:42;;;;;;;2.45;2.17;;;;;;;7.39;100.00;99828.25;4174691;28;20230;-49
2024/01/25 03:54:44;;;;;;;7.18;2.35;;;;;;;7.45;100.00;99830.19;4164660;28;20201;-51
2024/01/25 03:56:46;;;;;;;11.07;2.45;;;;;;;7.41;100.00;99829.75;4175187;28;20208;-50
2024/01/25 03:58:48;;;;;;;2.88;2.03;;;;;;;7.51;100.00;99821.22;4174351;28;20215;-50
2024/01/25 04:00:49;;;;;;;7.57;3.05;;;;;;;7.43;100.00;99821.38;4166174;28;20231;-50
2024/01/25 04:02:51;;;;;;;3.72;3.40;;;;;;;7.36;100.00;99831.38;4177931;28;20223;-51
2024/01/25 04:04:53;;;;;;;16.55;3.35;;;;;;;7.43;100.00;99830.38;4184267;28;20705;-50
2024/01/25 04:06:55;;;;;;;16.67;2.20;;;;;;;7.38;100.00;99829.28;4183325;28;20261;-50
2024/01/25 04:08:57;;;;;;;9.00;2.20;;;;;;;7.40;100.00;99827.22;4167968;28;20207;-50
2024/01/25 04:10:58;;;;;;;15.27;2.10;;;;;;;7.36;100.00;99831.38;4182733;28;20288;-51
2024/01/25 04:13:00;;;;;;;4.13;2.10;;;;;;;7.26;100.00;99836.31;4165021;28;20228;-49
2024/01/25 04:15:03;;;;;;;4.47;1.95;;;;;;;7.38;100.00;99845.63;4151718;28;20781;-49
2024/01/25 04:17:04;;;;;;;9.18;2.60;;;;;;;7.35;100.00;99841.41;4183653;28;20226;-49
2024/01/25 04:19:06;;;;;;;4.40;2.83;;;;;;;7.31;100.00;99839.28;4170482;28;20650;-50
2024/01/25 04:21:09;;;;;;;2.90;2.45;;;;;;;7.33;100.00;99858.97;4170037;28;20207;-50
2024/01/25 04:23:11;;;;;;;2.30;1.80;;;;;;;7.28;100.00;99853.31;4168291;28;20297;-50
2024/01/25 04:25:13;;;;;;;2.53;2.38;;;;;;;7.28;100.00;99856.03;4167087;28;20239;-50
2024/01/25 04:27:15;;;;;;;7.68;2.08;;;;;;;7.29;100.00;99857.72;4149967;28;20243;-50
2024/01/25 04:29:17;;;;;;;12.80;1.45;;;;;;;7.24;100.00;99860.19;4155731;28;20212;-50
2024/01/25 04:31:19;;;;;;;2.50;2.08;;;;;;;7.22;100.00;99856.81;4168606;28;20208;-50
2024/01/25 04:33:21;;;;;;;24.67;2.45;;;;;;;7.22;100.00;99863.09;4168725;28;20284;-50
2024/01/25 04:35:23;;;;;;;2.97;2.72;;;;;;;7.20;100.00;99858.88;4155792;28;20217;-50
2024/01/25 04:37:25;;;;;;;5.88;2.22;;;;;;;7.22;100.00;99862.25;4167780;28;20204;-50
2024/01/25 04:39:27;;;;;;;1.30;1.05;;;;;;;7.25;100.00;99865.44;4165652;28;20211;-50
2024/01/25 04:41:29;;;;;;;9.82;2.60;;;;;;;7.15;100.00;99866.81;4154188;28;20212;-51
2024/01/25 04:43:36;;;;;;;5.85;2.78;;;;;;;7.15;100.00;99867.63;4161973;28;20227;-50
2024/01/25 04:45:38;;;;;;;1.75;1.40;;;;;;;7.13;100.00;99872.44;4166786;28;20878;-50
2024/01/25 04:47:40;;;;;;;2.00;1.90;;;;;;;7.10;100.00;99880.16;4164540;28;20211;-51
2024/01/25 04:49:42;;;;;;;7.30;2.42;;;;;;;7.11;100.00;99876.38;4182943;28;20667;-50
2024/01/25 04:51:44;;;;;;;2.22;1.67;;;;;;;7.05;100.00;99880.75;4179813;28;20220;-50
2024/01/25 04:53:46;;;;;;;6.00;2.63;;;;;;;7.08;100.00;99876.78;4166588;28;20874;-54
2024/01/25 04:55:48;;;;;;;10.82;1.75;;;;;;;7.11;100.00;99881.81;4169381;28;20666;-50
2024/01/25 04:57:53;;;;;;;10.07;2.15;;;;;;;7.00;100.00;99879.63;4153255;28;20948;-48
2024/01/25 04:59:55;;;;;;;9.93;2.15;;;;;;;7.05;100.00;99885.31;4165854;28;20208;-50
2024/01/25 05:01:57;;;;;;;5.15;2.25;;;;;;;6.93;100.00;99879.56;4163268;28;20653;-49
2024/01/25 05:04:00;;;;;;;2.38;2.03;;;;;;;6.95;100.00;99882.91;4171464;28;20212;-49
2024/01/25 05:06:02;;;;;;;6.10;1.80;;;;;;;6.95;100.00;99888.38;4169642;28;20585;-49
2024/01/25 05:08:04;;;;;;;10.65;2.22;;;;;;;6.90;100.00;99890.00;4168134;28;20249;-49
2024/01/25 05:10:06;;;;;;;3.33;3.15;;;;;;;6.99;100.00;99888.81;4170749;28;20292;-50
2024/01/25 05:12:08;;;;;;;5.75;1.73;;;;;;;6.84;100.00;99891.63;4169048;28;20234;-49
2024/01/25 05:14:10;;;;;;;10.63;2.60;;;;;;;6.84;100.00;99902.50;4169978;28;20615;-50
2024/01/25 05:16:12;;;;;;;3.28;1.90;;;;;;;6.85;100.00;99897.88;4168203;28;20196;-49
2024/01/25 05:18:13;;;;;;;1.50;1.40;;;;;;;6.86;100.00;99900.41;4169017;28;20291;-48
2024/01/25 05:20:17;;;;;;;4.30;2.92;;;;;;;6.80;100.00;99905.75;4173447;28;20209;-49
2024/01/25 05:22:21;;;;;;;2.45;1.95;;;;;;;6.78;100.00;99900.53;4172687;28;20232;-49
2024/01/25 05:24:23;;;;;;;11.18;2.95;;;;;;;6.79;100.00;99909.53;4173640;28;20210;-51
2024/01/25 05:26:25;;;;;;;4.85;2.20;;;;;;;6.81;100.00;99908.31;4171698;28;20211;-50
2024/01/25 05:28:27;;;;;;;11.93;1.85;;;;;;;6.78;100.00;99905.13;4167044;28;20216;-50
2024/01/25 05:30:29;;;;;;;6.63;2.05;;;;;;;6.89;100.00;99912.78;4153489;28;20216;-52
2024/01/25 05:32:32;;;;;;;4.70;2.50;;;;;;;6.82;100.00;99920.88;4167313;28;20935;-52
2024/01/25 05:34:33;;;;;;;2.67;1.38;;;;;;;6.85;100.00;99919.66;4173113;28;20212;-51
2024/01/25 05:36:35;;;;;;;21.55;2.78;;;;;;;6.93;100.00;99927.69;4173508;28;20277;-52
2024/01/25 05:38:37;;;;;;;9.32;1.73;;;;;;;6.80;100.00;99936.56;4173506;28;20230;-51
2024/01/25 05:40:39;;;;;;;2.47;1.30;;;;;;;6.81;100.00;99934.66;4175824;28;20219;-50
2024/01/25 05:42:41;;;;;;;11.23;4.07;;;;;;;6.77;100.00;99941.53;4168020;28;20232;-50
2024/01/25 05:44:43;;;;;;;6.65;3.10;;;;;;;6.85;100.00;99946.84;4167325;28;20227;-51
2024/01/25 05:46:45;;;;;;;3.47;3.13;;;;;;;6.70;100.00;99949.59;4177035;28;20263;-51
2024/01/25 05:48:47;;;;;;;5.95;2.47;;;;;;;6.70;100.00;99951.50;4168831;28;20986;-51
2024/01/25 05:50:49;;;;;;;4.80;2.67;;;;;;;6.71;100.00;99943.16;4175759;28;20207;-51
2024/01/25 05:52:51;;;;;;;9.63;2.83;;;;;;;6.69;100.00;99947.91;4169743;28;20247;-50
2024/01/25 05:54:53;;;;;;;10.88;1.98;;;;;;;6.62;100.00;99947.00;4172347;28;20231;-52
2024/01/25 05:56:55;;;;;;;10.05;2.75;;;;;;;6.63;100.00;99956.00;4165734;28;20230;-51
2024/01/25 05:58:56;;;;;;;9.25;2.03;;;;;;;6.64;100.00;99954.97;4170134;28;22488;-50
2024/01/25 06:00:58;;;;;;;11.35;1.30;;;;;;;6.62;100.00;99951.59;4168294;28;20201;-49
2024/01/25 06:03:00;;;;;;;2.85;1.85;;;;;;;6.59;100.00;99952.81;4181662;28;20800;-51
2024/01/25 06:05:02;;;;;;;10.45;2.50;;;;;;;6.54;100.00;99948.97;4167649;28;20228;-51
2024/01/25 06:07:04;;;;;;;4.20;1.60;;;;;;;6.58;100.00;99948.41;4168315;28;20336;-51
2024/01/25 06:09:06;;;;;;;2.15;1.70;;;;;;;6.54;100.00;99941.66;4167276;28;20264;-51
2024/01/25 06:11:15;;;;;;;7.28;2.55;;;;;;;6.51;100.00;99944.78;4174669;28;20200;-51
2024/01/25 06:13:17;;;;;;;2.05;1.95;;;;;;;6.44;100.00;99948.41;4172321;28;20708;-50
2024/01/25 06:15:19;;;;;;;2.70;1.75;;;;;;;6.44;100.00;99953.88;4171853;28;20258;-51
2024/01/25 06:17:20;;;;;;;1.38;1.27;;;;;;;6.35;100.00;99949.56;4177314;28;20204;-50
2024/01/25 06:19:25;;;;;;;7.38;1.98;;;;;;;6.32;100.00;99949.94;4170035;28;20286;-50
2024/01/25 06:21:27;;;;;;;9.10;2.35;;;;;;;6.33;100.00;99940.72;4157479;28;20198;-49
2024/01/25 06:23:29;;;;;;;3.72;2.15;;;;;;;6.34;100.00;99950.56;4172040;28;20293;-50
2024/01/25 06:25:30;;;;;;;3.20;1.48;;;;;;;6.25;100.00;99946.28;4176586;28;20276;-49
2024/01/25 06:27:33;;;;;;;2.85;2.55;;;;;;;6.25;100.00;99954.44;4172006;28;20235;-50
2024/01/25 06:29:34;;;;;;;2.53;1.60;;;;;;;6.23;100.00;99949.16;4169127;28;20280;-50
2024/01/25 06:31:45;;;;;;;9.57;1.77;;;;;;;6.33;100.00;99940.72;4169718;28;20207;-51
2024/01/25 06:33:50;;;;;;;2.00;1.45;;;;;;;6.32;100.00;99947.22;4171661;28;20642;-50
2024/01/25 06:35:54;;;;;;;1.50;1.48;;;;;;;6.29;100.00;99944.88;4168346;28;20304;-50
2024/01/25 06:37:55;;;;;;;3.65;1.90;;;;;;;6.18;100.00;99942.63;4173054;28;20270;-51
2024/01/25 06:39:57;;;;;;;14.60;2.05;;;;;;;6.21;100.00;99939.50;4172404;28;20206;-51
2024/01/25 06:41:59;;;;;;;7.45;1.88;;;;;;;6.12;100.00;99937.94;4185625;28;20607;-51
2024/01/25 06:44:01;;;;;;;1.98;1.67;;;;;;;6.14;100.00;99941.28;4184603;28;20215;-50
2024/01/25 06:46:03;;;;;;;29.58;3.63;;;;;;;6.15;100.00;99935.69;4175162;28;20764;-50
2024/01/25 06:48:05;;;;;;;4.07;1.63;;;;;;;6.08;100.00;99939.34;4169503;28;20201;-49
2024/01/25 06:50:08;;;;;;;6.15;2.15;;;;;;;6.03;100.00;99937.16;4174034;28;20216;-51
2024/01/25 06:52:10;;;;;;;4.28;3.13;;;;;;;6.03;100.00;99952.66;4170537;28;20717;-51
2024/01/25 06:54:11;;;;;;;3.42;2.13;;;;;;;6.01;100.00;99946.53;4178929;28;20298;-50
2024/01/25 06:56:13;;;;;;;1.75;1.52;;;;;;;5.97;100.00;99945.22;4168424;28;20215;-51
2024/01/25 06:58:15;;;;;;;1.27;1.17;;;;;;;5.97;100.00;99945.22;4169050;28;20270;-50
2024/01/25 07:00:18;;;;;;;1.58;1.17;;;;;;;5.99;100.00;99948.59;4169125;28;20755;-51
2024/01/25 07:02:20;;;;;;;6.28;1.90;;;;;;;5.89;100.00;99937.19;4167280;28;20223;-51
2024/01/25 07:04:22;;;;;;;1.70;1.30;;;;;;;5.91;100.00;99948.69;4165263;28;20213;-52
2024/01/25 07:06:26;;;;;;;4.50;2.08;;;;;;;5.87;100.00;99953.66;4154400;28;20220;-51
2024/01/25 07:08:28;;;;;;;1.95;1.83;;;;;;;5.84;100.00;99956.72;4171082;28;20620;-51
2024/01/25 07:10:30;;;;;;;3.83;1.70;;;;;;;5.80;100.00;99954.56;4168255;28;20707;-50
2024/01/25 07:12:32;;;;;;;5.90;2.85;;;;;;;5.69;100.00;99953.09;4175110;28;20264;-50
2024/01/25 07:14:34;;;;;;;9.50;2.17;;;;;;;5.82;100.00;99958.78;4168786;28;20655;-50
2024/01/25 07:16:36;;;;;;;5.97;1.98;;;;;;;5.66;100.00;99952.63;4166723;28;20263;-51
2024/01/25 07:18:38;;;;;;;5.88;2.40;;;;;;;5.56;100.00;99960.22;4170271;28;20211;-53
2024/01/25 07:20:39;;;;;;;6.38;2.97;;;;;;;5.55;100.00;99961.25;4169650;28;20330;-54
2024/01/25 07:22:41;;;;;;;14.82;4.30;;;;;;;5.55;100.00;99961.25;4152716;28;20824;-53
2024/01/25 07:24:43;;;;;;;4.32;2.78;;;;;;;5.60;100.00;99958.78;4167194;28;20247;-51
2024/01/25 07:26:45;;;;;;;4.60;2.33;;;;;;;5.60;100.00;99947.94;4184438;28;20219;-54
2024/01/25 07:28:47;;;;;;;4.07;1.85;;;;;;;5.53;100.00;99947.84;4188409;28;20214;-51
2024/01/25 07:30:49;;;;;;;5.78;2.72;;;;;;;5.55;100.00;99944.94;4168858;28;20216;-52
2024/01/25 07:32:52;;;;;;;4.95;2.13;;;;;;;5.65;100.00;99938.22;4175079;28;20259;-52
2024/01/25 07:34:54;;;;;;;3.20;2.40;;;;;;;5.60;100.00;99942.50;4168672;28;20243;-53
2024/01/25 07:36:56;;;;;;;3.08;2.55;;;;;;;5.43;100.00;99947.22;4168247;28;20236;-51
2024/01/25 07:38:58;;;;;;;3.55;3.25;;;;;;;5.47;100.00;99939.56;4171911;28;20599;-52
2024/01/25 07:40:59;;;;;;;5.07;3.85;;;;;;;5.42;100.00;99939.28;4170565;28;20613;-51
2024/01/25 07:43:01;;;;;;;11.02;3.55;;;;;;;5.41;100.00;99932.16;4157620;28;20224;-52
2024/01/25 07:45:03;;;;;;;5.35;2.75;;;;;;;5.43;100.00;99935.53;4168741;28;20216;-51
2024/01/25 07:47:05;;;;;;;10.05;3.70;;;;;;;5.41;100.00;99937.56;4169482;28;20215;-52
2024/01/25 07:49:07;;;;;;;11.00;3.10;;;;;;;5.48;100.00;99941.25;4170666;28;20700;-51
2024/01/25 07:51:15;;;;;;;2.35;2.15;;;;;;;5.51;100.00;99943.63;4167061;28;20207;-52
2024/01/25 07:53:17;;;;;;;10.55;2.85;;;;;;;5.54;100.00;99938.66;4181668;28;20227;-52
2024/01/25 07:55:19;;;;;;;5.45;2.45;;;;;;;5.59;100.00;99940.81;4183194;28;20208;-52
2024/01/25 07:57:21;;;;;;;3.80;2.85;;;;;;;5.34;100.00;99948.34;4169496;28;20266;-51
2024/01/25 07:59:22;;;;;;;4.93;2.13;;;;;;;5.38;100.00;99946.97;4170265;28;20726;-50
2024/01/25 08:01:24;;;;;;;7.47;2.88;;;;;;;5.32;100.00;99949.53;4165722;28;20230;-51
2024/01/25 08:03:26;;;;;;;8.77;1.48;;;;;;;5.38;100.00;99944.25;4170766;28;20306;-50
2024/01/25 08:05:28;;;;;;;5.75;3.05;;;;;;;5.45;100.00;99947.06;4170926;28;20688;-55
2024/01/25 08:07:46;;;;;;;4.10;2.67;;;;;;;5.47;100.00;99936.84;4171546;28;20200;-53
2024/01/25 08:09:51;;;;;;;11.05;2.17;;;;;;;5.49;100.00;99934.81;4171834;28;20708;-52
2024/01/25 08:11:53;;;;;;;4.13;2.03;;;;;;;5.52;100.00;99939.88;4169594;28;20854;-52
2024/01/25 08:13:55;;;;;;;3.00;2.75;;;;;;;5.68;100.00;99935.13;4165492;28;20265;-51
2024/01/25 08:15:57;;;;;;;2.55;1.75;;;;;;;5.69;100.00;99941.41;4166328;28;20209;-51
2024/01/25 08:17:59;;;;;;;18.58;2.75;;;;;;;5.94;100.00;99941.00;4165859;28;20290;-51
2024/01/25 08:20:02;;;;;;;10.18;2.28;;;;;;;6.46;100.00;99940.91;4181460;28;20211;-52
2024/01/25 08:22:04;;;;;;;10.95;2.75;;;;;;;6.95;100.00;99942.78;4169562;28;20204;-52
2024/01/25 08:24:08;;;;;;;3.10;2.80;;;;;;;7.39;100.00;99934.44;4167445;28;20200;-51
2024/01/25 08:26:12;;;;;;;3.95;1.98;;;;;;;7.95;100.00;99953.38;4165333;28;20226;-53
2024/01/25 08:28:14;;;;;;;8.95;3.10;;;;;;;7.98;100.00;99952.13;4167402;28;20216;-51
2024/01/25 08:30:16;;;;;;;3.97;2.15;;;;;;;8.26;100.00;99956.56;4182093;28;20664;-52
2024/01/25 08:32:17;;;;;;;10.00;2.47;;;;;;;8.33;100.00;99957.47;4170548;28;20231;-52
2024/01/25 08:34:21;;;;;;;7.38;3.40;;;;;;;8.64;100.00;99957.00;4177287;28;20212;-52
2024/01/25 08:36:32;;;;;;;6.88;2.00;;;;;;;9.27;100.00;99962.03;4187985;28;20203;-51
2024/01/25 08:38:34;;;;;;;3.78;2.10;;;;;;;10.00;100.00;99956.44;4190845;28;20276;-49
2024/01/25 08:40:39;;;;;;;5.15;2.40;;;;;;;10.23;100.00;99956.91;4171464;28;20605;-49
2024/01/25 08:42:41;;;;;;;15.82;4.30;;;;;;;10.51;100.00;99957.47;4188608;28;20227;-53
2024/01/25 08:44:48;;;;;;;11.20;3.05;;;;;;;10.73;100.00;99961.59;4179350;28;20733;-53
2024/01/25 08:46:51;;;;;;;2.45;2.25;;;;;;;10.84;100.00;99959.06;4179183;28;20207;-50
2024/01/25 08:48:53;;;;;;;7.80;3.17;;;;;;;10.91;100.00;99959.88;4171848;28;20231;-51
2024/01/25 08:50:55;;;;;;;5.20;2.70;;;;;;;10.92;100.00;99967.84;4193077;28;20292;-50
2024/01/25 08:52:57;;;;;;;3.17;2.13;;;;;;;10.83;100.00;99969.16;4181155;28;20227;-50
2024/01/25 08:54:59;;;;;;;1.55;1.35;;;;;;;10.89;100.00;99957.34;4172428;28;20212;-49
2024/01/25 08:57:01;;;;;;;2.65;1.80;;;;;;;11.16;100.00;99963.53;4172669;28;20217;-51
2024/01/25 08:59:02;;;;;;;2.97;1.48;;;;;;;11.09;100.00;99973.66;4179488;28;20208;-50
2024/01/25 09:01:04;;;;;;;13.40;1.75;;;;;;;11.11;100.00;99971.56;4175311;28;20221;-50
2024/01/25 09:03:06;;;;;;;4.38;1.92;;;;;;;11.52;100.00;99970.06;4167747;28;20228;-51
2024/01/25 09:05:11;;;;;;;7.60;2.85;;;;;;;11.34;100.00;99969.97;4170580;28;20668;-50
2024/01/25 09:07:13;;;;;;;1.58;1.48;;;;;;;10.80;100.00;99974.22;4170791;28;20235;-51
2024/01/25 09:09:15;;;;;;;2.78;1.80;;;;;;;10.64;100.00;99973.84;4175516;28;20205;-49
2024/01/25 09:11:17;;;;;;;4.05;1.52;;;;;;;10.63;100.00;99966.69;4189352;28;20211;-50
2024/01/25 09:13:19;;;;;;;3.63;1.90;;;;;;;10.38;100.00;99969.28;4186632;28;20223;-49
2024/01/25 09:15:21;;;;;;;5.20;1.35;;;;;;;10.57;100.00;99962.09;4172458;28;20266;-50
2024/01/25 09:17:23;;;;;;;4.82;1.80;;;;;;;10.69;100.00;99966.66;4172654;28;20200;-50
2024/01/25 09:19:24;;;;;;;9.95;2.78;;;;;;;10.96;100.00;99966.38;4169624;28;20667;-50
2024/01/25 09:21:26;;;;;;;13.38;1.92;;;;;;;11.10;100.00;99970.72;4170528;28;20209;-50
2024/01/25 09:23:28;;;;;;;4.00;2.25;;;;;;;11.12;100.00;99967.78;4177021;28;20232;-50
2024/01/25 09:25:30;;;;;;;1.52;1.42;;;;;;;11.13;100.00;99973.03;4177668;28;20686;-51
2024/01/25 09:27:32;;;;;;;2.90;1.20;;;;;;;11.04;100.00;99971.59;4169002;28;20235;-49
2024/01/25 09:29:34;;;;;;;14.48;2.40;;;;;;;11.04;100.00;99971.59;4171507;28;20708;-51
2024/01/25 09:31:36;;;;;;;3.38;1.90;;;;;;;11.46;100.00;99970.97;4175465;28;20386;-50
2024/01/25 09:33:37;;;;;;;9.13;1.88;;;;;;;11.75;100.00;99967.63;4175491;28;20691;-51